< < Back
Terminal Aerodrome Forecast


Current Version              Previous Versions:   1  2  3  4  5  6  7  8  9  

Terminal Aerodrome Forecast

578
FTUS42 KILM 182300
TAFFLO
TAF
KFLO 182331Z 1900/1924 23009KT P6SM VCTS FEW040CB SCT120
     FM190200 22006KT P6SM SCT040 BKN150
      TEMPO 1909/1912 5SM BR
     FM191300 28011KT P6SM FEW030 SCT150
     FM191800 25011KT P6SM VCTS SCT050CB SCT150=

Latest METAR

236
SAUS70 KWBC 200400 RRB
MTRFLO
METAR KFLO 200353Z AUTO 14004KT 10SM CLR 25/23 A2990 RMK AO2 SLP121
T02500233


USA.gov is the U.S. government's official web portal to all federal, state and local government web resources and services.